METEO SANTAMARIA - WU Station History 

^^
Meteosantamaria
 
Giornaliero Rapporto per Agosto 17, 2018 Unità:  Metrico    Imperiale   Entrambi
« Precedente
Prossimo »
Giornaliero Settimanale Mensile Annuale Personalizzato
  Attuale: Max: Min: Media:
Temperatura: -1.6 °C -17.8 °C -8.8 °C -6.5 °C
Punto di rugiada: -9.3 °C -17.8 °C -10.4 °C -9.8 °C
Umidità;: 43% Humidity% 43% 70%
Vel.Vento: 11.9km/h 0km/h 0km/h 8.5km/h
Raffiche: 7.6km/h 0km/h - -
DirezioneWNW - - ESE
Pressione: 34161.4 hPa 0 hPa 34161.4 hPa -
Pioggia: 0 mm      
Historical Graphs
 
 
Dati di Agosto 17, 2018
Ora Temperatura Punto di rugiada Pressione Direzione Vento Raffiche Umidità Intensità pioggia Condizioni del cielo
-17.8 °C -17.8 °C 0 hPa Calm     Humidity% 0 mm Conditions
00:04 -6 °C -10.1 °C 34161.4 hPa Calm     63% 0 mm CLR
00:09 -6.1 °C -10 °C 34161.4 hPa NNE 9 km/h 8.2 km/h 64% 0 mm CLR
00:13 -6.1 °C -10 °C 34161.4 hPa NNE 10.3 km/h 9.7 km/h 64% 0 mm CLR
00:19 -6.3 °C -10.1 °C 34161.4 hPa NNE 9.7 km/h 8.2 km/h 65% 0 mm CLR
00:23 -6.3 °C -10.1 °C 34161.4 hPa NNE 9 km/h 6 km/h 65% 0 mm CLR
00:29 -6.4 °C -10.1 °C 34161.4 hPa NNE 9 km/h 7.6 km/h 66% 0 mm CLR
00:33 -6.4 °C -10.1 °C 34161.4 hPa NE 10.3 km/h 6.8 km/h 66% 0 mm CLR
00:39 -6.4 °C -10.1 °C 34161.4 hPa NE 9 km/h 6.8 km/h 66% 0 mm CLR
00:44 -6.4 °C -10.2 °C 34161.4 hPa NE 6 km/h 4.3 km/h 65% 0 mm CLR
00:48 -6.5 °C -10.2 °C 34161.4 hPa Calm     66% 0 mm CLR
00:54 -6.5 °C -10.2 °C 34161.4 hPa Calm     66% 0 mm CLR
00:58 -6.6 °C -10.2 °C 34161.4 hPa Calm     66% 0 mm CLR
01:03 -6.6 °C -10.2 °C 34161.4 hPa Calm     66% 0 mm CLR
01:09 -6.7 °C -10.2 °C 34161.4 hPa NE 6 km/h 4.3 km/h 67% 0 mm CLR
01:13 -6.7 °C -10.2 °C 34161.4 hPa NE 7.6 km/h 6 km/h 67% 0 mm CLR
01:19 -6.8 °C -10.1 °C 34161.4 hPa NE 9 km/h 8.2 km/h 69% 0 mm CLR
01:23 -6.8 °C -10.1 °C 34161.4 hPa NE 9 km/h 8.2 km/h 69% 0 mm CLR
01:28 -6.8 °C -10.1 °C 34161.4 hPa NE 9 km/h 6.8 km/h 69% 0 mm CLR
01:34 -6.9 °C -10.1 °C 34161.4 hPa NE 9 km/h 7.6 km/h 69% 0 mm CLR
01:38 -6.9 °C -10.1 °C 34161.4 hPa NE 6.8 km/h 5 km/h 70% 0 mm CLR
01:44 -6.9 °C -10.1 °C 34161.4 hPa NE 9 km/h 6.8 km/h 70% 0 mm CLR
01:48 -6.9 °C -10.1 °C 34161.4 hPa NE 9 km/h 6.8 km/h 70% 0 mm CLR
01:53 -7 °C -10.1 °C 34161.4 hPa NNE 9 km/h 5 km/h 70% 0 mm CLR
01:59 -7.1 °C -10.2 °C 34161.4 hPa NNE 7.6 km/h 5 km/h 70% 0 mm CLR
02:04 -7.1 °C -10.2 °C 34161.4 hPa NNE 6 km/h 4.3 km/h 70% 0 mm CLR
02:09 -7.2 °C -10.3 °C 34161.4 hPa NNE 4.3 km/h 2.9 km/h 70% 0 mm CLR
02:14 -7.2 °C -10.3 °C 34161.4 hPa Calm     70% 0 mm CLR
02:18 -7.3 °C -10.3 °C 34161.4 hPa Calm     71% 0 mm CLR
02:24 -7.3 °C -10.3 °C 34161.4 hPa Calm     71% 0 mm CLR
02:28 -7.3 °C -10.3 °C 34161.4 hPa Calm     71% 0 mm CLR
02:34 -7.3 °C -10.2 °C 34161.4 hPa NNE 9 km/h 6 km/h 72% 0 mm CLR
02:38 -7.4 °C -10.2 °C 34161.4 hPa NNE 6 km/h 3.7 km/h 72% 0 mm CLR
02:44 -7.4 °C -10.2 °C 34161.4 hPa Calm     72% 0 mm CLR
02:48 -7.4 °C -10.3 °C 34161.4 hPa NNE 6 km/h 4.3 km/h 72% 0 mm CLR
02:54 -7.5 °C -10.4 °C 34161.4 hPa Calm     72% 0 mm CLR
02:58 -7.6 °C -10.3 °C 34161.4 hPa Calm     73% 0 mm CLR
03:04 -7.6 °C -10.3 °C 34161.4 hPa NNE 9 km/h 6 km/h 73% 0 mm CLR
03:08 -7.6 °C -10.3 °C 34161.4 hPa NNE 6.8 km/h 6 km/h 73% 0 mm CLR
03:14 -7.7 °C -10.3 °C 34161.4 hPa NNE 6.8 km/h 5 km/h 74% 0 mm CLR
03:18 -7.7 °C -10.3 °C 34161.4 hPa ESE 9 km/h 6.8 km/h 74% 0 mm CLR
03:24 -7.7 °C -10.3 °C 34161.4 hPa ENE 9.7 km/h 8.2 km/h 74% 0 mm CLR
03:28 -7.7 °C -10.3 °C 34161.4 hPa ENE 6 km/h 5 km/h 74% 0 mm CLR
03:34 -7.8 °C -10.3 °C 34161.4 hPa ENE 9.7 km/h 6.8 km/h 75% 0 mm CLR
03:38 -7.9 °C -10.3 °C 34161.4 hPa ENE 9 km/h 8.2 km/h 76% 0 mm CLR
03:44 -7.9 °C -10.3 °C 34161.4 hPa East 9 km/h 8.2 km/h 76% 0 mm CLR
03:48 -7.9 °C -10.3 °C 34161.4 hPa ENE 9 km/h 5 km/h 76% 0 mm CLR
03:54 -7.9 °C -10.3 °C 34161.4 hPa ENE 6 km/h 4.3 km/h 76% 0 mm CLR
03:58 -7.9 °C -10.3 °C 34161.4 hPa ENE 6.8 km/h 5 km/h 76% 0 mm CLR
04:04 -7.9 °C -10.3 °C 34161.4 hPa ENE 6 km/h 5 km/h 76% 0 mm CLR
04:08 -8 °C -10.3 °C 34161.4 hPa ENE 4.3 km/h 2.9 km/h 77% 0 mm CLR
04:14 -8 °C -10.3 °C 34161.4 hPa ENE 6 km/h 4.3 km/h 77% 0 mm CLR
04:18 -8 °C -10.3 °C 34161.4 hPa ENE 6 km/h 5 km/h 77% 0 mm CLR
04:24 -8 °C -10.3 °C 34161.4 hPa ENE 9 km/h 6 km/h 77% 0 mm CLR
04:28 -8.1 °C -10.3 °C 34161.4 hPa ENE 9 km/h 6 km/h 77% 0 mm CLR
04:34 -8.2 °C -10.3 °C 34161.4 hPa ENE 9.7 km/h 8.2 km/h 78% 0 mm CLR
04:38 -8.2 °C -10.3 °C 34161.4 hPa ENE 11.1 km/h 9.7 km/h 79% 0 mm CLR
04:44 -8.3 °C -10.3 °C 34161.4 hPa ENE 12.4 km/h 9.7 km/h 79% 0 mm CLR
04:48 -8.3 °C -10.3 °C 34161.4 hPa ENE 11.9 km/h 9.7 km/h 79% 0 mm CLR
04:54 -8.3 °C -10.3 °C 34161.4 hPa East 9 km/h 6 km/h 79% 0 mm CLR
04:58 -8.3 °C -10.2 °C 34161.4 hPa ENE 9 km/h 8.2 km/h 80% 0 mm CLR
05:04 -8.3 °C -10.3 °C 34161.4 hPa ENE 9 km/h 7.6 km/h 80% 0 mm CLR
05:08 -8.4 °C -10.4 °C 34161.4 hPa ENE 3.7 km/h   79% 0 mm CLR
05:14 -8.4 °C -10.4 °C 34161.4 hPa ENE 6 km/h 5 km/h 79% 0 mm CLR
05:18 -8.3 °C -10.4 °C 34161.4 hPa SSE 6.8 km/h 5 km/h 79% 0 mm CLR
05:24 -8.3 °C -10.4 °C 34161.4 hPa ENE 4.3 km/h   79% 0 mm CLR
05:28 -8.3 °C -10.4 °C 34161.4 hPa ENE 9 km/h 6.8 km/h 79% 0 mm CLR
05:34 -8.3 °C -10.3 °C 34161.4 hPa East 9.7 km/h 7.6 km/h 80% 0 mm CLR
05:38 -8.4 °C -10.3 °C 34161.4 hPa East 11.9 km/h 7.6 km/h 80% 0 mm CLR
05:44 -8.4 °C -10.4 °C 34161.4 hPa East 9 km/h 7.6 km/h 80% 0 mm CLR
05:48 -8.4 °C -10.4 °C 34161.4 hPa East 6 km/h   80% 0 mm CLR
05:54 -8.4 °C -10.3 °C 34161.4 hPa ENE 9 km/h 5 km/h 80% 0 mm CLR
05:59 -8.4 °C -10.4 °C 34161.4 hPa ENE 9 km/h 5 km/h 80% 0 mm CLR
06:04 -8.4 °C -10.4 °C 34161.4 hPa East 9 km/h 6.8 km/h 80% 0 mm CLR
06:08 -8.4 °C -10.4 °C 34161.4 hPa SE 9 km/h 6.8 km/h 80% 0 mm CLR
06:14 -8.5 °C -10.4 °C 34161.4 hPa ENE 6 km/h 2.9 km/h 80% 0 mm CLR
06:18 -8.6 °C -10.3 °C 34195.2 hPa ENE 10.3 km/h 9.7 km/h 82% 0 mm CLR
06:24 -8.7 °C -10.4 °C 34195.2 hPa ENE 9 km/h 8.2 km/h 82% 0 mm CLR
06:28 -8.8 °C -10.4 °C 34195.2 hPa ENE 9 km/h 7.6 km/h 83% 0 mm CLR
06:34 -8.8 °C -10.4 °C 34195.2 hPa ENE 11.9 km/h 11.1 km/h 83% 0 mm CLR
06:38 -8.8 °C -10.3 °C 34195.2 hPa NE 10.3 km/h 9.7 km/h 84% 0 mm CLR
06:44 -8.8 °C -10.4 °C 34195.2 hPa ENE 9 km/h 7.6 km/h 83% 0 mm CLR
06:48 -8.8 °C -10.4 °C 34195.2 hPa NE 9 km/h 6.8 km/h 83% 0 mm CLR
06:54 -8.8 °C -10.4 °C 34195.2 hPa NE 9 km/h 5 km/h 83% 0 mm CLR
06:58 -8.8 °C -10.3 °C 34195.2 hPa NE 9 km/h 6 km/h 84% 0 mm CLR
07:04 -8.8 °C -10.4 °C 34195.2 hPa ENE 9.7 km/h 7.6 km/h 83% 0 mm CLR
07:08 -8.7 °C -10.3 °C 34195.2 hPa ENE 9 km/h 4.3 km/h 83% 0 mm CLR
07:14 -8.6 °C -10.2 °C 34195.2 hPa ENE 4.3 km/h 2.9 km/h 83% 0 mm CLR
07:18 -8.4 °C -10.1 °C 34195.2 hPa Calm     83% 0 mm CLR
07:24 -8.3 °C -10.1 °C 34195.2 hPa ENE 3.1 km/h   82% 0 mm CLR
07:28 -8.2 °C -9.9 °C 34195.2 hPa Calm     82% 0 mm CLR
07:34 -8.1 °C -9.8 °C 34195.2 hPa NE 6.8 km/h   82% 0 mm CLR
07:38 -8 °C -9.7 °C 34195.2 hPa North 8.2 km/h 4.3 km/h 82% 0 mm CLR
07:44 -7.9 °C -9.7 °C 34195.2 hPa North 9 km/h 2.9 km/h 82% 0 mm CLR
07:48 -7.9 °C -9.8 °C 34195.2 hPa North 6.8 km/h 5 km/h 80% 0 mm CLR
07:54 -7.7 °C -9.7 °C 34195.2 hPa ENE 10.3 km/h 6 km/h 79% 0 mm CLR
07:58 -7.6 °C -9.7 °C 34195.2 hPa NNE 9.7 km/h 6 km/h 78% 0 mm CLR
08:04 -7.5 °C -9.7 °C 34195.2 hPa NNE 9.7 km/h 9 km/h 78% 0 mm CLR
08:08 -7.4 °C -9.6 °C 34195.2 hPa East 10.3 km/h 4.3 km/h 78% 0 mm CLR
08:14 -7.3 °C -9.5 °C 34195.2 hPa ENE 9.7 km/h 8.2 km/h 78% 0 mm FEW
08:18 -7.2 °C -9.6 °C 34195.2 hPa Calm     76% 0 mm FEW
08:24 -6.9 °C -9.3 °C 34195.2 hPa NE 4.3 km/h 2.9 km/h 76% 0 mm FEW
08:28 -7 °C -9.6 °C 34195.2 hPa ENE 7.6 km/h 5 km/h 75% 0 mm FEW
08:34 -6.8 °C -9.3 °C 34195.2 hPa SSW 5 km/h 3.7 km/h 75% 0 mm FEW
08:38 -6.6 °C -9.2 °C 34195.2 hPa East 3.7 km/h 2.9 km/h 74% 0 mm FEW
08:44 -6.4 °C -9.2 °C 34195.2 hPa SSW 9 km/h 2.9 km/h 73% 0 mm FEW
08:48 -6.4 °C -9.2 °C 34195.2 hPa West 9 km/h 2.9 km/h 73% 0 mm FEW
08:54 -6.4 °C -9.2 °C 34195.2 hPa West 6 km/h 4.3 km/h 73% 0 mm FEW
08:58 -6.4 °C -9.3 °C 34195.2 hPa WSW 10.3 km/h 8.2 km/h 72% 0 mm FEW
09:04 -6.4 °C -9.3 °C 34195.2 hPa WSW 6.8 km/h 5 km/h 72% 0 mm FEW
09:08 -6.3 °C -9.3 °C 34195.2 hPa West 9 km/h 7.6 km/h 71% 0 mm FEW
09:14 -6.1 °C -9.1 °C 34195.2 hPa SSE 3.1 km/h 2.9 km/h 71% 0 mm FEW
09:18 -5.7 °C -8.9 °C 34195.2 hPa NW 9 km/h 6.8 km/h 70% 0 mm FEW
09:24 -5.7 °C -9 °C 34195.2 hPa West 9 km/h 4.3 km/h 69% 0 mm FEW
09:28 -5.8 °C -9.1 °C 34195.2 hPa West 12.4 km/h 7.6 km/h 69% 0 mm FEW
09:34 -5.9 °C -9.2 °C 34195.2 hPa WNW 9 km/h 6 km/h 69% 0 mm FEW
09:38 -5.7 °C -9.1 °C 34195.2 hPa WSW 9.7 km/h 6.8 km/h 68% 0 mm FEW
09:44 -5.6 °C -9 °C 34195.2 hPa ENE 6 km/h 4.3 km/h 68% 0 mm FEW
09:48 -5.3 °C -8.9 °C 34195.2 hPa West 9 km/h 6 km/h 67% 0 mm FEW
09:54 -5.1 °C -8.8 °C 34195.2 hPa NE 6.8 km/h 5 km/h 66% 0 mm FEW
09:58 -5 °C -9 °C 34195.2 hPa NW 9.7 km/h 8.2 km/h 64% 0 mm FEW
10:04 -5.1 °C -8.8 °C 34195.2 hPa SSW 6 km/h 3.7 km/h 66% 0 mm FEW
10:08 -4.7 °C -8.7 °C 34195.2 hPa West 16.9 km/h 14.8 km/h 64% 0 mm FEW
10:14 -4.8 °C -8.8 °C 34195.2 hPa SW 10.3 km/h 6.8 km/h 64% 0 mm FEW
10:18 -4.8 °C -8.9 °C 34195.2 hPa WSW 11.9 km/h 10.3 km/h 63% 0 mm FEW
10:24 -4.6 °C -8.7 °C 34195.2 hPa NW 6.8 km/h 5 km/h 63% 0 mm FEW
10:28 -4.7 °C -8.9 °C 34195.2 hPa SSW 15 km/h 10.3 km/h 62% 0 mm FEW
10:34 -4.4 °C -8.8 °C 34195.2 hPa East 9 km/h 5 km/h 61% 0 mm FEW
10:38 -4.3 °C -8.7 °C 34195.2 hPa West 11.9 km/h 9.7 km/h 61% 0 mm FEW
10:44 -4.2 °C -8.8 °C 34195.2 hPa WSW 11.9 km/h 7.6 km/h 60% 0 mm FEW
10:48 -3.8 °C -8.4 °C 34195.2 hPa South 6 km/h   60% 0 mm FEW
10:54 -3.7 °C -8.5 °C 34195.2 hPa East 9 km/h 6.8 km/h 59% 0 mm FEW
10:59 -3.7 °C -8.6 °C 34195.2 hPa ENE 3.1 km/h   58% 0 mm FEW
11:04 -3.4 °C -8.3 °C 34195.2 hPa West 6.8 km/h 3.7 km/h 58% 0 mm FEW
11:08 -3.7 °C -8.7 °C 34195.2 hPa WSW 11.9 km/h 9.7 km/h 58% 0 mm FEW
11:14 -3.6 °C -8.7 °C 34195.2 hPa SW 15.3 km/h 7.6 km/h 57% 0 mm FEW
11:18 -3.6 °C -8.7 °C 34195.2 hPa NW 11.9 km/h 9 km/h 57% 0 mm FEW
11:24 -3.4 °C -8.7 °C 34195.2 hPa NNE 13.2 km/h 11.1 km/h 56% 0 mm FEW
11:28 -3.5 °C -8.6 °C 34195.2 hPa North 9 km/h 3.7 km/h 57% 0 mm FEW
11:34 -3.5 °C -8.6 °C 34195.2 hPa NNW 7.6 km/h 4.3 km/h 57% 0 mm FEW
11:38 -3.3 °C -8.7 °C 34195.2 hPa WSW 20 km/h 15.3 km/h 55% 0 mm FEW
11:44 -2.9 °C -8.3 °C 34195.2 hPa SW 11.9 km/h 6 km/h 55% 0 mm FEW
11:48 -2.9 °C -8.3 °C 34195.2 hPa WSW 17.9 km/h 10.3 km/h 55% 0 mm FEW
11:54 -2.8 °C -8.4 °C 34195.2 hPa West 19.5 km/h 12.4 km/h 54% 0 mm FEW
11:58 -2.8 °C -8.4 °C 34195.2 hPa NNE 9 km/h 4.3 km/h 54% 0 mm FEW
12:03 -2.9 °C -8.7 °C 34195.2 hPa SW 27.2 km/h 22.9 km/h 53% 0 mm FEW
12:09 -2.9 °C -8.5 °C 34195.2 hPa SW 11.9 km/h 6.8 km/h 54% 0 mm FEW
12:13 -3 °C -8.9 °C 34195.2 hPa West 17.9 km/h 9.7 km/h 52% 0 mm FEW
12:19 -2.6 °C -8.7 °C 34195.2 hPa NNW 11.9 km/h 8.2 km/h 51% 0 mm FEW
12:23 -2.6 °C -8.7 °C 34195.2 hPa ENE 20.9 km/h 14 km/h 51% 0 mm FEW
12:29 -2.6 °C -8.7 °C 34195.2 hPa SW 23.5 km/h 8.2 km/h 51% 0 mm FEW
12:33 -2.4 °C -8.8 °C 34195.2 hPa South 22.2 km/h 15.3 km/h 50% 0 mm FEW
12:39 -2.3 °C -8.6 °C 34195.2 hPa ESE 15 km/h 11.9 km/h 50% 0 mm FEW
12:43 -2.2 °C -8.8 °C 34195.2 hPa West 15 km/h 4.3 km/h 48% 0 mm FEW
12:49 -1.9 °C -8.8 °C 34161.4 hPa SSE 15.3 km/h 11.1 km/h 47% 0 mm FEW
12:53 -1.8 °C -8.7 °C 34161.4 hPa SW 11.9 km/h 8.2 km/h 47% 0 mm FEW
12:59 -2.2 °C -9.2 °C 34161.4 hPa NNE 17.9 km/h 14 km/h 46% 0 mm FEW
13:04 -2.1 °C -9.1 °C 34161.4 hPa East 9 km/h 6.8 km/h 46% 0 mm FEW
13:08 -1.6 °C -9.3 °C 34161.4 hPa WNW 11.9 km/h 7.6 km/h 43% 0 mm FEW
Meteosantamaria, Umbria, ITALIA
per gentile concessione di Weather Underground - 3.25 mb